sensor_id;sensor_type;location;lat;lon;timestamp;pressure;altitude;pressure_sealevel;temperature;humidity
54850;BME280;47660;51.334;12.396;2023-02-21T00:00:23;100205.88;;;12.78;100.00
54850;BME280;47660;51.334;12.396;2023-02-21T00:03:07;100216.16;;;12.71;100.00
54850;BME280;47660;51.334;12.396;2023-02-21T00:05:51;100203.16;;;12.67;100.00
54850;BME280;47660;51.334;12.396;2023-02-21T00:08:35;100210.84;;;12.83;100.00
54850;BME280;47660;51.334;12.396;2023-02-21T00:11:19;100203.53;;;12.98;100.00
54850;BME280;47660;51.334;12.396;2023-02-21T00:14:04;100214.88;;;12.88;100.00
54850;BME280;47660;51.334;12.396;2023-02-21T00:16:48;100203.72;;;12.83;100.00
54850;BME280;47660;51.334;12.396;2023-02-21T00:19:32;100203.84;;;12.93;100.00
54850;BME280;47660;51.334;12.396;2023-02-21T00:22:16;100211.34;;;12.52;100.00
54850;BME280;47660;51.334;12.396;2023-02-21T00:25:00;100209.00;;;12.47;100.00
54850;BME280;47660;51.334;12.396;2023-02-21T00:27:44;100212.66;;;12.82;100.00
54850;BME280;47660;51.334;12.396;2023-02-21T00:30:28;100197.59;;;12.70;100.00
54850;BME280;47660;51.334;12.396;2023-02-21T00:33:12;100195.00;;;12.92;100.00
54850;BME280;47660;51.334;12.396;2023-02-21T00:35:56;100187.66;;;12.47;100.00
54850;BME280;47660;51.334;12.396;2023-02-21T00:38:40;100179.69;;;12.47;100.00
54850;BME280;47660;51.334;12.396;2023-02-21T00:41:24;100182.16;;;12.62;100.00
54850;BME280;47660;51.334;12.396;2023-02-21T00:44:09;100204.53;;;12.48;100.00
54850;BME280;47660;51.334;12.396;2023-02-21T00:46:53;100183.94;;;12.86;100.00
54850;BME280;47660;51.334;12.396;2023-02-21T00:49:37;100178.81;;;12.71;100.00
54850;BME280;47660;51.334;12.396;2023-02-21T00:52:21;100177.34;;;12.67;100.00
54850;BME280;47660;51.334;12.396;2023-02-21T00:55:08;100183.09;;;12.85;100.00
54850;BME280;47660;51.334;12.396;2023-02-21T00:57:52;100186.69;;;12.73;100.00
54850;BME280;47660;51.334;12.396;2023-02-21T01:00:36;100182.00;;;12.88;100.00
54850;BME280;47660;51.334;12.396;2023-02-21T01:03:20;100182.72;;;12.54;100.00
54850;BME280;47660;51.334;12.396;2023-02-21T01:06:08;100175.19;;;12.72;100.00
54850;BME280;47660;51.334;12.396;2023-02-21T01:08:52;100171.72;;;12.59;100.00
54850;BME280;47660;51.334;12.396;2023-02-21T01:11:36;100181.16;;;12.87;100.00
54850;BME280;47660;51.334;12.396;2023-02-21T01:14:20;100177.06;;;13.06;100.00
54850;BME280;47660;51.334;12.396;2023-02-21T01:17:07;100168.66;;;12.88;100.00
54850;BME280;47660;51.334;12.396;2023-02-21T01:19:51;100179.66;;;12.72;100.00
54850;BME280;47660;51.334;12.396;2023-02-21T01:22:35;100173.53;;;12.94;100.00
54850;BME280;47660;51.334;12.396;2023-02-21T01:25:19;100165.34;;;12.73;100.00
54850;BME280;47660;51.334;12.396;2023-02-21T01:28:03;100186.88;;;12.94;100.00
54850;BME280;47660;51.334;12.396;2023-02-21T01:30:47;100174.31;;;12.72;100.00
54850;BME280;47660;51.334;12.396;2023-02-21T01:33:38;100189.16;;;12.87;100.00
54850;BME280;47660;51.334;12.396;2023-02-21T01:36:26;100190.38;;;12.83;100.00
54850;BME280;47660;51.334;12.396;2023-02-21T01:39:13;100204.91;;;12.55;100.00
54850;BME280;47660;51.334;12.396;2023-02-21T01:41:57;100185.38;;;12.78;100.00
54850;BME280;47660;51.334;12.396;2023-02-21T01:44:43;100187.84;;;12.93;100.00
54850;BME280;47660;51.334;12.396;2023-02-21T01:47:29;100196.72;;;13.05;100.00
54850;BME280;47660;51.334;12.396;2023-02-21T01:50:29;100195.06;;;12.80;100.00
54850;BME280;47660;51.334;12.396;2023-02-21T01:53:19;100188.81;;;12.92;100.00
54850;BME280;47660;51.334;12.396;2023-02-21T01:56:05;100183.19;;;12.84;100.00
54850;BME280;47660;51.334;12.396;2023-02-21T01:58:52;100181.28;;;12.86;100.00
54850;BME280;47660;51.334;12.396;2023-02-21T02:04:32;100175.41;;;12.69;100.00
54850;BME280;47660;51.334;12.396;2023-02-21T02:07:17;100170.50;;;12.87;100.00
54850;BME280;47660;51.334;12.396;2023-02-21T02:10:01;100170.44;;;13.12;100.00
54850;BME280;47660;51.334;12.396;2023-02-21T02:15:32;100167.38;;;12.93;100.00
54850;BME280;47660;51.334;12.396;2023-02-21T02:29:34;100141.53;;;12.94;100.00
54850;BME280;47660;51.334;12.396;2023-02-21T02:34:54;100138.41;;;12.65;100.00
54850;BME280;47660;51.334;12.396;2023-02-21T02:37:37;100136.06;;;12.84;100.00
54850;BME280;47660;51.334;12.396;2023-02-21T02:45:30;100150.34;;;12.83;100.00
54850;BME280;47660;51.334;12.396;2023-02-21T02:48:04;100132.38;;;12.74;100.00
54850;BME280;47660;51.334;12.396;2023-02-21T02:50:32;100138.47;;;12.76;100.00
54850;BME280;47660;51.334;12.396;2023-02-21T02:53:02;100134.28;;;12.60;100.00
54850;BME280;47660;51.334;12.396;2023-02-21T02:55:36;100137.16;;;12.46;100.00
54850;BME280;47660;51.334;12.396;2023-02-21T02:58:07;100142.81;;;12.17;100.00
54850;BME280;47660;51.334;12.396;2023-02-21T03:00:35;100136.63;;;12.65;100.00
54850;BME280;47660;51.334;12.396;2023-02-21T03:11:13;100126.06;;;12.63;100.00
54850;BME280;47660;51.334;12.396;2023-02-21T03:13:50;100120.94;;;12.49;100.00
54850;BME280;47660;51.334;12.396;2023-02-21T03:16:30;100120.56;;;12.54;100.00
54850;BME280;47660;51.334;12.396;2023-02-21T03:19:02;100121.81;;;12.61;100.00
54850;BME280;47660;51.334;12.396;2023-02-21T03:21:33;100114.81;;;12.83;100.00
54850;BME280;47660;51.334;12.396;2023-02-21T03:24:03;100118.06;;;12.63;100.00
54850;BME280;47660;51.334;12.396;2023-02-21T03:26:36;100113.50;;;12.77;100.00
54850;BME280;47660;51.334;12.396;2023-02-21T03:29:04;100118.78;;;12.66;100.00
54850;BME280;47660;51.334;12.396;2023-02-21T03:31:36;100124.13;;;12.66;100.00
54850;BME280;47660;51.334;12.396;2023-02-21T03:34:06;100116.53;;;12.37;100.00
54850;BME280;47660;51.334;12.396;2023-02-21T03:36:36;100123.94;;;12.80;100.00
54850;BME280;47660;51.334;12.396;2023-02-21T03:39:04;100111.56;;;13.02;100.00
54850;BME280;47660;51.334;12.396;2023-02-21T03:41:30;100121.16;;;12.46;100.00
54850;BME280;47660;51.334;12.396;2023-02-21T03:43:55;100127.06;;;12.74;100.00
54850;BME280;47660;51.334;12.396;2023-02-21T03:46:21;100113.44;;;12.66;100.00
54850;BME280;47660;51.334;12.396;2023-02-21T03:48:49;100117.66;;;13.04;100.00
54850;BME280;47660;51.334;12.396;2023-02-21T03:51:17;100117.41;;;12.96;100.00
54850;BME280;47660;51.334;12.396;2023-02-21T03:53:45;100136.63;;;12.65;100.00
54850;BME280;47660;51.334;12.396;2023-02-21T03:56:10;100105.25;;;12.80;100.00
54850;BME280;47660;51.334;12.396;2023-02-21T03:58:38;100115.38;;;12.52;100.00
54850;BME280;47660;51.334;12.396;2023-02-21T04:01:04;100121.31;;;12.56;100.00
54850;BME280;47660;51.334;12.396;2023-02-21T04:03:29;100109.41;;;12.48;100.00
54850;BME280;47660;51.334;12.396;2023-02-21T04:05:57;100122.38;;;12.53;100.00
54850;BME280;47660;51.334;12.396;2023-02-21T04:08:23;100112.66;;;12.41;100.00
54850;BME280;47660;51.334;12.396;2023-02-21T04:10:48;100106.97;;;12.81;100.00
54850;BME280;47660;51.334;12.396;2023-02-21T04:13:18;100122.81;;;12.71;100.00
54850;BME280;47660;51.334;12.396;2023-02-21T04:15:44;100126.44;;;12.70;100.00
54850;BME280;47660;51.334;12.396;2023-02-21T04:18:09;100122.75;;;12.24;100.00
54850;BME280;47660;51.334;12.396;2023-02-21T04:20:35;100112.03;;;12.37;100.00
54850;BME280;47660;51.334;12.396;2023-02-21T04:23:05;100122.88;;;12.58;100.00
54850;BME280;47660;51.334;12.396;2023-02-21T04:25:30;100122.75;;;12.24;100.00
54850;BME280;47660;51.334;12.396;2023-02-21T04:27:56;100117.91;;;12.54;100.00
54850;BME280;47660;51.334;12.396;2023-02-21T04:30:24;100110.78;;;12.66;100.00
54850;BME280;47660;51.334;12.396;2023-02-21T04:32:51;100111.72;;;13.00;100.00
54850;BME280;47660;51.334;12.396;2023-02-21T04:35:17;100104.63;;;12.65;100.00
54850;BME280;47660;51.334;12.396;2023-02-21T04:37:42;100099.78;;;12.70;100.00
54850;BME280;47660;51.334;12.396;2023-02-21T04:40:09;100101.22;;;12.63;100.00
54850;BME280;47660;51.334;12.396;2023-02-21T04:42:35;100096.81;;;12.51;100.00
54850;BME280;47660;51.334;12.396;2023-02-21T04:45:02;100095.91;;;12.74;100.00
54850;BME280;47660;51.334;12.396;2023-02-21T04:47:28;100101.22;;;12.27;100.00
54850;BME280;47660;51.334;12.396;2023-02-21T04:49:56;100101.19;;;12.99;100.00
54850;BME280;47660;51.334;12.396;2023-02-21T04:52:21;100096.91;;;12.96;100.00
54850;BME280;47660;51.334;12.396;2023-02-21T04:54:47;100094.22;;;12.85;100.00
54850;BME280;47660;51.334;12.396;2023-02-21T04:57:16;100097.69;;;12.51;100.00
54850;BME280;47660;51.334;12.396;2023-02-21T04:59:41;100101.41;;;13.07;100.00
54850;BME280;47660;51.334;12.396;2023-02-21T05:02:07;100095.56;;;13.02;100.00
54850;BME280;47660;51.334;12.396;2023-02-21T05:04:42;100098.75;;;12.48;100.00
54850;BME280;47660;51.334;12.396;2023-02-21T05:07:07;100100.38;;;12.27;100.00
54850;BME280;47660;51.334;12.396;2023-02-21T05:09:37;100099.94;;;12.44;100.00
54850;BME280;47660;51.334;12.396;2023-02-21T05:12:03;100088.44;;;12.55;100.00
54850;BME280;47660;51.334;12.396;2023-02-21T05:14:35;100106.88;;;12.47;100.00
54850;BME280;47660;51.334;12.396;2023-02-21T05:17:03;100107.72;;;12.47;100.00
54850;BME280;47660;51.334;12.396;2023-02-21T05:19:31;100102.75;;;12.54;100.00
54850;BME280;47660;51.334;12.396;2023-02-21T05:22:01;100111.47;;;12.56;100.00
54850;BME280;47660;51.334;12.396;2023-02-21T05:24:28;100116.22;;;12.53;100.00
54850;BME280;47660;51.334;12.396;2023-02-21T05:26:57;100124.97;;;12.66;100.00
54850;BME280;47660;51.334;12.396;2023-02-21T05:29:22;100114.41;;;12.65;100.00
54850;BME280;47660;51.334;12.396;2023-02-21T05:31:48;100117.78;;;13.02;100.00
54850;BME280;47660;51.334;12.396;2023-02-21T05:34:14;100108.34;;;12.51;100.00
54850;BME280;47660;51.334;12.396;2023-02-21T05:36:41;100118.44;;;12.70;100.00
54850;BME280;47660;51.334;12.396;2023-02-21T05:39:07;100112.69;;;12.99;100.00
54850;BME280;47660;51.334;12.396;2023-02-21T05:41:33;100118.88;;;12.53;100.00
54850;BME280;47660;51.334;12.396;2023-02-21T05:44:00;100114.63;;;12.50;100.00
54850;BME280;47660;51.334;12.396;2023-02-21T05:46:33;100124.06;;;12.54;100.00
54850;BME280;47660;51.334;12.396;2023-02-21T05:49:01;100118.06;;;12.63;100.00
54850;BME280;47660;51.334;12.396;2023-02-21T05:51:42;100146.28;;;12.55;100.00
54850;BME280;47660;51.334;12.396;2023-02-21T05:54:12;100121.56;;;13.00;100.00
54850;BME280;47660;51.334;12.396;2023-02-21T05:56:41;100126.91;;;13.34;100.00
54850;BME280;47660;51.334;12.396;2023-02-21T05:59:08;100127.31;;;12.82;100.00
54850;BME280;47660;51.334;12.396;2023-02-21T06:01:36;100134.88;;;12.53;100.00
54850;BME280;47660;51.334;12.396;2023-02-21T06:04:02;100133.81;;;12.67;100.00
54850;BME280;47660;51.334;12.396;2023-02-21T06:06:29;100149.63;;;12.81;100.00
54850;BME280;47660;51.334;12.396;2023-02-21T06:08:55;100142.69;;;12.78;100.00
54850;BME280;47660;51.334;12.396;2023-02-21T06:11:25;100149.97;;;12.76;100.00
54850;BME280;47660;51.334;12.396;2023-02-21T06:13:53;100147.56;;;12.73;100.00
54850;BME280;47660;51.334;12.396;2023-02-21T06:16:24;100156.66;;;12.46;100.00
54850;BME280;47660;51.334;12.396;2023-02-21T06:18:56;100168.75;;;12.75;100.00
54850;BME280;47660;51.334;12.396;2023-02-21T06:21:21;100167.66;;;12.66;100.00
54850;BME280;47660;51.334;12.396;2023-02-21T06:23:47;100165.63;;;12.45;100.00
54850;BME280;47660;51.334;12.396;2023-02-21T06:26:15;100169.66;;;12.98;100.00
54850;BME280;47660;51.334;12.396;2023-02-21T06:28:40;100168.47;;;12.67;100.00
54850;BME280;47660;51.334;12.396;2023-02-21T06:31:06;100176.59;;;12.65;100.00
54850;BME280;47660;51.334;12.396;2023-02-21T06:33:32;100173.97;;;12.76;100.00
54850;BME280;47660;51.334;12.396;2023-02-21T06:35:57;100178.59;;;12.74;100.00
54850;BME280;47660;51.334;12.396;2023-02-21T06:38:25;100182.78;;;13.01;100.00
54850;BME280;47660;51.334;12.396;2023-02-21T06:40:53;100180.53;;;12.84;100.00
54850;BME280;47660;51.334;12.396;2023-02-21T06:43:19;100184.44;;;12.55;100.00
54850;BME280;47660;51.334;12.396;2023-02-21T06:45:44;100185.06;;;12.95;100.00
54850;BME280;47660;51.334;12.396;2023-02-21T06:48:14;100194.66;;;12.97;100.00
54850;BME280;47660;51.334;12.396;2023-02-21T06:50:39;100200.69;;;12.52;100.00
54850;BME280;47660;51.334;12.396;2023-02-21T06:53:07;100194.41;;;12.65;100.00
54850;BME280;47660;51.334;12.396;2023-02-21T06:55:35;100190.84;;;12.53;100.00
54850;BME280;47660;51.334;12.396;2023-02-21T06:58:01;100196.41;;;12.50;100.00
54850;BME280;47660;51.334;12.396;2023-02-21T07:00:26;100203.13;;;12.91;100.00
54850;BME280;47660;51.334;12.396;2023-02-21T07:02:53;100212.53;;;12.72;100.00
54850;BME280;47660;51.334;12.396;2023-02-21T07:05:19;100216.69;;;12.88;100.00
54850;BME280;47660;51.334;12.396;2023-02-21T07:07:45;100217.59;;;13.00;100.00
54850;BME280;47660;51.334;12.396;2023-02-21T07:10:13;100210.31;;;12.42;100.00
54850;BME280;47660;51.334;12.396;2023-02-21T07:12:43;100214.97;;;12.51;100.00
54850;BME280;47660;51.334;12.396;2023-02-21T07:15:09;100221.47;;;12.71;100.00
54850;BME280;47660;51.334;12.396;2023-02-21T07:17:40;100220.50;;;12.97;100.00
54850;BME280;47660;51.334;12.396;2023-02-21T07:20:11;100216.91;;;12.85;100.00
54850;BME280;47660;51.334;12.396;2023-02-21T07:22:37;100220.03;;;13.14;100.00
54850;BME280;47660;51.334;12.396;2023-02-21T07:25:05;100217.34;;;13.50;100.00
54850;BME280;47660;51.334;12.396;2023-02-21T07:27:33;100219.44;;;13.11;100.00
54850;BME280;47660;51.334;12.396;2023-02-21T07:30:01;100214.94;;;13.58;100.00
54850;BME280;47660;51.334;12.396;2023-02-21T07:32:27;100223.00;;;13.34;100.00
54850;BME280;47660;51.334;12.396;2023-02-21T07:34:52;100224.97;;;13.55;100.00
54850;BME280;47660;51.334;12.396;2023-02-21T07:37:21;100219.41;;;13.69;100.00
54850;BME280;47660;51.334;12.396;2023-02-21T07:39:54;100234.34;;;13.60;100.00
54850;BME280;47660;51.334;12.396;2023-02-21T07:42:20;100228.09;;;13.37;100.00
54850;BME280;47660;51.334;12.396;2023-02-21T07:44:45;100233.75;;;13.68;100.00
54850;BME280;47660;51.334;12.396;2023-02-21T07:47:12;100229.28;;;13.69;100.00
54850;BME280;47660;51.334;12.396;2023-02-21T07:49:39;100233.09;;;13.42;100.00
54850;BME280;47660;51.334;12.396;2023-02-21T07:52:06;100223.31;;;13.76;100.00
54850;BME280;47660;51.334;12.396;2023-02-21T07:54:32;100220.66;;;13.88;100.00
54850;BME280;47660;51.334;12.396;2023-02-21T07:56:58;100225.25;;;13.63;100.00
54850;BME280;47660;51.334;12.396;2023-02-21T07:59:23;100227.66;;;14.11;100.00
54850;BME280;47660;51.334;12.396;2023-02-21T08:01:51;100233.97;;;14.22;100.00
54850;BME280;47660;51.334;12.396;2023-02-21T08:04:17;100232.16;;;13.54;100.00
54850;BME280;47660;51.334;12.396;2023-02-21T08:06:56;100241.41;;;13.73;100.00
54850;BME280;47660;51.334;12.396;2023-02-21T08:09:32;100237.75;;;13.74;100.00
54850;BME280;47660;51.334;12.396;2023-02-21T08:12:24;100242.88;;;13.65;100.00
54850;BME280;47660;51.334;12.396;2023-02-21T08:15:12;100249.91;;;13.89;100.00
54850;BME280;47660;51.334;12.396;2023-02-21T08:17:38;100252.28;;;13.47;100.00
54850;BME280;47660;51.334;12.396;2023-02-21T08:20:07;100254.75;;;13.61;100.00
54850;BME280;47660;51.334;12.396;2023-02-21T08:22:35;100260.00;;;13.86;100.00
54850;BME280;47660;51.334;12.396;2023-02-21T08:25:03;100256.31;;;14.09;100.00
54850;BME280;47660;51.334;12.396;2023-02-21T08:27:29;100259.63;;;14.02;100.00
54850;BME280;47660;51.334;12.396;2023-02-21T08:29:56;100256.72;;;13.71;100.00
54850;BME280;47660;51.334;12.396;2023-02-21T08:32:24;100249.28;;;13.97;100.00
54850;BME280;47660;51.334;12.396;2023-02-21T08:34:54;100257.91;;;14.01;100.00
54850;BME280;47660;51.334;12.396;2023-02-21T08:37:20;100256.94;;;13.68;100.00
54850;BME280;47660;51.334;12.396;2023-02-21T08:39:49;100256.16;;;13.43;100.00
54850;BME280;47660;51.334;12.396;2023-02-21T08:42:19;100266.06;;;13.76;100.00
54850;BME280;47660;51.334;12.396;2023-02-21T08:44:47;100267.91;;;13.40;100.00
54850;BME280;47660;51.334;12.396;2023-02-21T08:47:14;100264.53;;;13.49;100.00
54850;BME280;47660;51.334;12.396;2023-02-21T08:49:43;100263.38;;;14.10;100.00
54850;BME280;47660;51.334;12.396;2023-02-21T08:52:17;100268.72;;;13.76;100.00
54850;BME280;47660;51.334;12.396;2023-02-21T08:54:46;100266.16;;;13.63;100.00
54850;BME280;47660;51.334;12.396;2023-02-21T08:57:12;100266.75;;;14.24;100.00
54850;BME280;47660;51.334;12.396;2023-02-21T08:59:43;100267.03;;;13.75;100.00
54850;BME280;47660;51.334;12.396;2023-02-21T09:02:17;100271.03;;;13.92;100.00
54850;BME280;47660;51.334;12.396;2023-02-21T09:04:46;100283.25;;;13.61;100.00
54850;BME280;47660;51.334;12.396;2023-02-21T09:07:16;100276.34;;;14.26;100.00
54850;BME280;47660;51.334;12.396;2023-02-21T09:09:45;100262.50;;;14.21;100.00
54850;BME280;47660;51.334;12.396;2023-02-21T09:12:11;100256.72;;;13.71;100.00
54850;BME280;47660;51.334;12.396;2023-02-21T09:14:39;100263.03;;;13.34;100.00
54850;BME280;47660;51.334;12.396;2023-02-21T09:17:12;100259.16;;;13.38;100.00
54850;BME280;47660;51.334;12.396;2023-02-21T09:19:47;100256.56;;;13.61;100.00
54850;BME280;47660;51.334;12.396;2023-02-21T09:22:12;100261.03;;;13.49;100.00
54850;BME280;47660;51.334;12.396;2023-02-21T09:24:38;100257.06;;;14.00;100.00
54850;BME280;47660;51.334;12.396;2023-02-21T09:27:06;100246.00;;;13.82;100.00
54850;BME280;47660;51.334;12.396;2023-02-21T09:29:35;100254.94;;;14.49;100.00
54850;BME280;47660;51.334;12.396;2023-02-21T09:32:02;100248.00;;;14.47;100.00
54850;BME280;47660;51.334;12.396;2023-02-21T09:34:28;100248.44;;;14.19;100.00
54850;BME280;47660;51.334;12.396;2023-02-21T09:36:54;100262.63;;;14.43;100.00
54850;BME280;47660;51.334;12.396;2023-02-21T09:39:21;100260.50;;;14.58;100.00
54850;BME280;47660;51.334;12.396;2023-02-21T09:41:47;100257.84;;;14.69;100.00
54850;BME280;47660;51.334;12.396;2023-02-21T09:44:21;100262.25;;;14.91;100.00
54850;BME280;47660;51.334;12.396;2023-02-21T09:46:58;100258.97;;;14.44;100.00
54850;BME280;47660;51.334;12.396;2023-02-21T09:49:33;100277.72;;;13.87;100.00
54850;BME280;47660;51.334;12.396;2023-02-21T09:52:01;100266.78;;;13.90;100.00
54850;BME280;47660;51.334;12.396;2023-02-21T09:54:27;100279.75;;;14.40;100.00
54850;BME280;47660;51.334;12.396;2023-02-21T09:56:56;100273.88;;;14.69;100.00
54850;BME280;47660;51.334;12.396;2023-02-21T09:59:24;100269.19;;;14.38;100.00
54850;BME280;47660;51.334;12.396;2023-02-21T10:13:37;100283.03;;;14.44;100.00
54850;BME280;47660;51.334;12.396;2023-02-21T10:18:43;100284.31;;;14.72;100.00
54850;BME280;47660;51.334;12.396;2023-02-21T10:21:30;100289.84;;;14.92;100.00
54850;BME280;47660;51.334;12.396;2023-02-21T10:23:57;100288.72;;;14.62;100.00
54850;BME280;47660;51.334;12.396;2023-02-21T10:26:32;100291.25;;;14.63;100.00
54850;BME280;47660;51.334;12.396;2023-02-21T10:29:00;100294.72;;;14.20;100.00
54850;BME280;47660;51.334;12.396;2023-02-21T10:34:02;100298.47;;;14.95;100.00
54850;BME280;47660;51.334;12.396;2023-02-21T10:36:29;100303.06;;;14.38;100.00
54850;BME280;47660;51.334;12.396;2023-02-21T10:39:09;100297.41;;;14.87;100.00
54850;BME280;47660;51.334;12.396;2023-02-21T10:41:38;100300.50;;;14.48;100.00
54850;BME280;47660;51.334;12.396;2023-02-21T10:44:18;100303.16;;;14.59;100.00
54850;BME280;47660;51.334;12.396;2023-02-21T10:47:17;100305.34;;;14.77;100.00
54850;BME280;47660;51.334;12.396;2023-02-21T10:49:46;100314.94;;;14.79;100.00
54850;BME280;47660;51.334;12.396;2023-02-21T10:52:16;100307.69;;;14.24;100.00
54850;BME280;47660;51.334;12.396;2023-02-21T10:57:25;100299.66;;;14.47;100.00
54850;BME280;47660;51.334;12.396;2023-02-21T10:59:56;100312.81;;;14.27;100.00
54850;BME280;47660;51.334;12.396;2023-02-21T11:02:34;100310.38;;;14.47;100.00
54850;BME280;47660;51.334;12.396;2023-02-21T11:05:19;100301.47;;;14.69;100.00
54850;BME280;47660;51.334;12.396;2023-02-21T11:10:57;100299.75;;;14.68;100.00
54850;BME280;47660;51.334;12.396;2023-02-21T11:13:25;100297.25;;;14.44;100.00
54850;BME280;47660;51.334;12.396;2023-02-21T11:16:16;100295.44;;;14.22;100.00
54850;BME280;47660;51.334;12.396;2023-02-21T11:18:42;100299.16;;;14.53;100.00
54850;BME280;47660;51.334;12.396;2023-02-21T11:21:17;100294.16;;;14.60;100.00
54850;BME280;47660;51.334;12.396;2023-02-21T11:23:48;100294.72;;;14.87;100.00
54850;BME280;47660;51.334;12.396;2023-02-21T11:26:18;100284.34;;;14.49;100.00
54850;BME280;47660;51.334;12.396;2023-02-21T11:28:46;100278.84;;;14.62;100.00
54850;BME280;47660;51.334;12.396;2023-02-21T11:31:19;100292.13;;;14.52;100.00
54850;BME280;47660;51.334;12.396;2023-02-21T11:33:55;100281.69;;;14.49;100.00
54850;BME280;47660;51.334;12.396;2023-02-21T11:36:30;100285.28;;;14.71;100.00
54850;BME280;47660;51.334;12.396;2023-02-21T11:39:16;100275.50;;;14.37;100.00
54850;BME280;47660;51.334;12.396;2023-02-21T11:44:35;100267.44;;;15.04;99.68
54850;BME280;47660;51.334;12.396;2023-02-21T11:47:44;100270.81;;;14.62;100.00
54850;BME280;47660;51.334;12.396;2023-02-21T11:50:37;100265.22;;;14.77;99.81
54850;BME280;47660;51.334;12.396;2023-02-21T11:53:21;100263.56;;;14.97;99.02
54850;BME280;47660;51.334;12.396;2023-02-21T11:59:18;100256.78;;;15.35;97.07
54850;BME280;47660;51.334;12.396;2023-02-21T12:01:58;100254.13;;;15.66;95.84
54850;BME280;47660;51.334;12.396;2023-02-21T12:07:15;100251.78;;;15.73;95.42
54850;BME280;47660;51.334;12.396;2023-02-21T12:15:12;100245.06;;;15.57;96.11
54850;BME280;47660;51.334;12.396;2023-02-21T12:18:04;100235.69;;;15.42;98.03
54850;BME280;47660;51.334;12.396;2023-02-21T12:23:28;100230.59;;;15.60;96.47
54850;BME280;47660;51.334;12.396;2023-02-21T12:51:07;100213.94;;;15.66;96.52
54850;BME280;47660;51.334;12.396;2023-02-21T12:53:40;100210.50;;;15.02;100.00
54850;BME280;47660;51.334;12.396;2023-02-21T12:58:44;100211.78;;;14.87;100.00
54850;BME280;47660;51.334;12.396;2023-02-21T13:01:18;100201.75;;;15.00;100.00
54850;BME280;47660;51.334;12.396;2023-02-21T13:03:53;100216.09;;;14.99;100.00
54850;BME280;47660;51.334;12.396;2023-02-21T13:14:19;100207.56;;;15.05;100.00
54850;BME280;47660;51.334;12.396;2023-02-21T13:16:47;100211.94;;;15.06;100.00
54850;BME280;47660;51.334;12.396;2023-02-21T13:19:13;100206.44;;;15.08;100.00
54850;BME280;47660;51.334;12.396;2023-02-21T13:29:49;100202.66;;;15.63;98.71
54850;BME280;47660;51.334;12.396;2023-02-21T13:32:17;100192.50;;;15.66;97.73
54850;BME280;47660;51.334;12.396;2023-02-21T13:34:54;100197.53;;;15.50;98.87
54850;BME280;47660;51.334;12.396;2023-02-21T13:37:28;100191.13;;;15.62;97.32
54850;BME280;47660;51.334;12.396;2023-02-21T13:39:58;100187.56;;;15.62;98.64
54850;BME280;47660;51.334;12.396;2023-02-21T13:42:36;100192.06;;;15.30;100.00
54850;BME280;47660;51.334;12.396;2023-02-21T13:55:32;100188.81;;;15.26;100.00
54850;BME280;47660;51.334;12.396;2023-02-21T14:08:35;100187.38;;;15.84;96.44
54850;BME280;47660;51.334;12.396;2023-02-21T14:13:51;100187.34;;;15.74;95.12
54850;BME280;47660;51.334;12.396;2023-02-21T14:16:23;100179.16;;;15.45;98.06
54850;BME280;47660;51.334;12.396;2023-02-21T14:18:58;100187.88;;;15.68;96.60
54850;BME280;47660;51.334;12.396;2023-02-21T14:21:42;100184.66;;;16.06;93.95
54850;BME280;47660;51.334;12.396;2023-02-21T14:26:54;100186.47;;;15.95;94.55
54850;BME280;47660;51.334;12.396;2023-02-21T14:29:33;100181.56;;;16.20;92.18
54850;BME280;47660;51.334;12.396;2023-02-21T14:39:48;100189.88;;;16.17;90.79
54850;BME280;47660;51.334;12.396;2023-02-21T14:47:48;100179.75;;;16.30;88.67
54850;BME280;47660;51.334;12.396;2023-02-21T14:53:39;100169.19;;;16.98;82.92
54850;BME280;47660;51.334;12.396;2023-02-21T15:06:10;100176.09;;;16.61;83.02
54850;BME280;47660;51.334;12.396;2023-02-21T15:08:23;100194.31;;;15.87;85.75
54850;BME280;47660;51.334;12.396;2023-02-21T15:10:53;100182.75;;;16.37;84.54
54850;BME280;47660;51.334;12.396;2023-02-21T15:13:27;100182.88;;;17.04;80.13
54850;BME280;47660;51.334;12.396;2023-02-21T15:15:57;100182.69;;;17.26;76.96
54850;BME280;47660;51.334;12.396;2023-02-21T15:18:28;100192.63;;;16.66;79.47
54850;BME280;47660;51.334;12.396;2023-02-21T15:23:28;100197.81;;;16.18;81.56
54850;BME280;47660;51.334;12.396;2023-02-21T15:25:59;100194.41;;;16.16;82.19
54850;BME280;47660;51.334;12.396;2023-02-21T15:28:31;100189.44;;;16.02;82.68
54850;BME280;47660;51.334;12.396;2023-02-21T15:33:24;100203.28;;;16.07;82.78
54850;BME280;47660;51.334;12.396;2023-02-21T15:36:14;100196.22;;;16.06;82.16
54850;BME280;47660;51.334;12.396;2023-02-21T15:38:46;100199.38;;;15.80;83.93
54850;BME280;47660;51.334;12.396;2023-02-21T15:41:34;100203.16;;;16.09;82.08
54850;BME280;47660;51.334;12.396;2023-02-21T15:55:13;100206.47;;;15.91;79.82
54850;BME280;47660;51.334;12.396;2023-02-21T15:57:42;100208.88;;;15.94;78.09
54850;BME280;47660;51.334;12.396;2023-02-21T16:01:12;100196.38;;;16.14;77.66
54850;BME280;47660;51.334;12.396;2023-02-21T16:03:44;100205.56;;;16.12;76.21